Time,TemperatureF,DewpointF,PressureIn,WindDirection,WindDirectionDegrees,WindSpeedMPH,WindSpeedGustMPH,Humidity,HourlyPrecipIn,Conditions,Clouds,dailyrainin,SoftwareType,DateUTC
2014-03-03 00:03:00,-8.5,-15.9,30.47,NW,315,0.0,0.0,69,0.00,,,0.00,WUHU216HW,2014-03-03 06:03:00,
2014-03-03 00:10:00,-8.5,-15.9,30.46,NW,315,0.0,0.0,69,0.00,,,0.00,WUHU216HW,2014-03-03 06:10:00,
2014-03-03 00:16:00,-8.6,-16.5,30.46,NW,315,0.0,0.0,68,0.00,,,0.00,WUHU216HW,2014-03-03 06:16:00,
2014-03-03 00:22:00,-8.6,-16.5,30.46,ENE,68,0.0,0.0,68,0.00,,,0.00,WUHU216HW,2014-03-03 06:22:00,
2014-03-03 00:28:00,-8.8,-16.6,30.47,North,0,0.0,0.0,68,0.00,,,0.00,WUHU216HW,2014-03-03 06:28:00,
2014-03-03 00:34:00,-9.2,-17.0,30.46,NNW,338,0.0,0.0,68,0.00,,,0.00,WUHU216HW,2014-03-03 06:34:00,
2014-03-03 00:40:00,-9.7,-17.5,30.46,WNW,293,0.0,0.0,68,0.00,,,0.00,WUHU216HW,2014-03-03 06:40:00,
2014-03-03 00:46:00,-9.7,-17.5,30.46,NW,315,0.0,0.0,68,0.00,,,0.00,WUHU216HW,2014-03-03 06:46:00,
2014-03-03 00:52:00,-9.7,-17.5,30.46,WNW,293,0.0,0.0,68,0.00,,,0.00,WUHU216HW,2014-03-03 06:52:00,
2014-03-03 00:58:00,-9.7,-17.5,30.47,West,270,0.0,0.0,68,0.00,,,0.00,WUHU216HW,2014-03-03 06:58:00,
2014-03-03 01:04:00,-10.1,-17.9,30.47,West,270,0.0,0.0,68,0.00,,,0.00,WUHU216HW,2014-03-03 07:04:00,
2014-03-03 01:10:00,-10.4,-18.3,30.47,West,270,0.0,0.0,68,0.00,,,0.00,WUHU216HW,2014-03-03 07:10:00,
2014-03-03 01:16:00,-10.4,-18.3,30.47,West,270,0.0,0.0,68,0.00,,,0.00,WUHU216HW,2014-03-03 07:16:00,
2014-03-03 01:22:00,-10.6,-18.4,30.47,SSE,158,0.0,0.0,68,0.00,,,0.00,WUHU216HW,2014-03-03 07:22:00,
2014-03-03 01:28:00,-11.0,-18.7,30.47,SE,135,0.0,0.0,68,0.00,,,0.00,WUHU216HW,2014-03-03 07:28:00,
2014-03-03 01:34:00,-11.2,-18.9,30.47,SE,135,0.0,0.0,68,0.00,,,0.00,WUHU216HW,2014-03-03 07:34:00,
2014-03-03 01:40:00,-11.2,-18.9,30.47,SE,135,0.0,0.0,68,0.00,,,0.00,WUHU216HW,2014-03-03 07:40:00,
2014-03-03 01:46:00,-11.5,-19.2,30.47,SE,135,0.0,0.0,68,0.00,,,0.00,WUHU216HW,2014-03-03 07:46:00,
2014-03-03 01:52:00,-11.7,-19.4,30.48,West,270,0.0,0.0,68,0.00,,,0.00,WUHU216HW,2014-03-03 07:52:00,
2014-03-03 01:58:00,-11.7,-19.4,30.48,West,270,0.0,0.0,68,0.00,,,0.00,WUHU216HW,2014-03-03 07:58:00,
2014-03-03 02:04:00,-11.9,-19.6,30.48,WNW,293,0.0,0.0,68,0.00,,,0.00,WUHU216HW,2014-03-03 08:04:00,
2014-03-03 02:10:00,-11.9,-19.0,30.48,NW,315,0.0,0.0,70,0.00,,,0.00,WUHU216HW,2014-03-03 08:10:00,
2014-03-03 02:16:00,-12.2,-19.3,30.48,North,0,0.0,0.0,70,0.00,,,0.00,WUHU216HW,2014-03-03 08:16:00,
2014-03-03 02:22:00,-12.2,-19.3,30.48,North,0,0.0,0.0,70,0.00,,,0.00,WUHU216HW,2014-03-03 08:22:00,
2014-03-03 02:28:00,-12.2,-19.3,30.47,North,0,0.0,0.0,70,0.00,,,0.00,WUHU216HW,2014-03-03 08:28:00,
2014-03-03 02:34:00,-12.2,-19.3,30.47,SE,135,0.0,0.0,70,0.00,,,0.00,WUHU216HW,2014-03-03 08:34:00,
2014-03-03 02:40:00,-12.2,-19.6,30.47,SE,135,0.0,0.0,69,0.00,,,0.00,WUHU216HW,2014-03-03 08:40:00,
2014-03-03 02:46:00,-12.1,-19.4,30.46,SE,135,0.0,0.0,69,0.00,,,0.00,WUHU216HW,2014-03-03 08:46:00,
2014-03-03 02:52:00,-12.1,-19.4,30.46,SE,135,0.0,0.0,69,0.00,,,0.00,WUHU216HW,2014-03-03 08:52:00,
2014-03-03 02:58:00,-12.6,-20.0,30.46,SE,135,0.0,0.0,69,0.00,,,0.00,WUHU216HW,2014-03-03 08:58:00,
2014-03-03 03:04:00,-13.0,-20.2,30.46,SSW,203,0.0,0.0,69,0.00,,,0.00,WUHU216HW,2014-03-03 09:04:00,
2014-03-03 03:10:00,-13.7,-21.0,30.46,SSW,203,0.0,0.0,69,0.00,,,0.00,WUHU216HW,2014-03-03 09:10:00,
2014-03-03 03:16:00,-14.0,-21.3,30.46,West,270,0.0,0.0,69,0.00,,,0.00,WUHU216HW,2014-03-03 09:16:00,
2014-03-03 03:22:00,-14.2,-21.5,30.47,WNW,293,0.0,0.0,69,0.00,,,0.00,WUHU216HW,2014-03-03 09:22:00,
2014-03-03 03:28:00,-14.0,-21.3,30.47,WNW,293,0.0,0.0,69,0.00,,,0.00,WUHU216HW,2014-03-03 09:28:00,
2014-03-03 03:34:00,-14.0,-21.3,30.46,SSE,158,0.0,0.0,69,0.00,,,0.00,WUHU216HW,2014-03-03 09:34:00,
2014-03-03 03:40:00,-13.9,-20.9,30.47,SE,135,0.0,0.0,70,0.00,,,0.00,WUHU216HW,2014-03-03 09:40:00,
2014-03-03 03:46:00,-13.7,-20.7,30.47,SE,135,0.0,0.0,70,0.00,,,0.00,WUHU216HW,2014-03-03 09:46:00,
2014-03-03 03:52:00,-13.5,-20.5,30.47,SE,135,0.0,0.0,70,0.00,,,0.00,WUHU216HW,2014-03-03 09:52:00,
2014-03-03 03:58:00,-13.9,-20.9,30.47,SSE,158,0.0,0.0,70,0.00,,,0.00,WUHU216HW,2014-03-03 09:58:00,
2014-03-03 04:04:00,-14.0,-21.1,30.46,SSE,158,0.0,0.0,70,0.00,,,0.00,WUHU216HW,2014-03-03 10:04:00,
2014-03-03 04:10:00,-14.0,-21.1,30.46,SSE,158,0.0,0.0,70,0.00,,,0.00,WUHU216HW,2014-03-03 10:10:00,
2014-03-03 04:16:00,-14.0,-21.1,30.45,SSE,158,0.0,0.0,70,0.00,,,0.00,WUHU216HW,2014-03-03 10:16:00,
2014-03-03 04:22:00,-14.0,-21.1,30.45,SSE,158,0.0,0.0,70,0.00,,,0.00,WUHU216HW,2014-03-03 10:22:00,
2014-03-03 04:28:00,-13.7,-20.4,30.45,SSE,158,0.0,0.0,71,0.00,,,0.00,WUHU216HW,2014-03-03 10:28:00,
2014-03-03 04:34:00,-13.5,-20.2,30.45,SSE,158,0.0,0.0,71,0.00,,,0.00,WUHU216HW,2014-03-03 10:34:00,
2014-03-03 04:40:00,-13.5,-20.5,30.45,WSW,248,0.0,0.0,70,0.00,,,0.00,WUHU216HW,2014-03-03 10:40:00,
2014-03-03 04:46:00,-13.3,-20.3,30.45,WSW,248,0.0,0.0,70,0.00,,,0.00,WUHU216HW,2014-03-03 10:46:00,
2014-03-03 04:52:00,-13.5,-20.5,30.46,West,270,0.0,0.0,70,0.00,,,0.00,WUHU216HW,2014-03-03 10:52:00,
2014-03-03 04:58:00,-13.5,-20.5,30.46,West,270,0.0,0.0,70,0.00,,,0.00,WUHU216HW,2014-03-03 10:58:00,
2014-03-03 05:04:00,-13.3,-20.1,30.45,West,270,0.0,0.0,71,0.00,,,0.00,WUHU216HW,2014-03-03 11:04:00,
2014-03-03 05:10:00,-13.0,-19.7,30.46,West,270,0.0,0.0,71,0.00,,,0.00,WUHU216HW,2014-03-03 11:10:00,
2014-03-03 05:16:00,-12.8,-19.5,30.46,West,270,0.0,0.0,71,0.00,,,0.00,WUHU216HW,2014-03-03 11:16:00,
2014-03-03 05:22:00,-12.4,-19.3,30.46,West,270,0.0,0.0,71,0.00,,,0.00,WUHU216HW,2014-03-03 11:22:00,
2014-03-03 05:28:00,-12.2,-19.1,30.45,West,270,0.0,0.0,71,0.00,,,0.00,WUHU216HW,2014-03-03 11:28:00,
2014-03-03 05:34:00,-12.2,-19.1,30.46,West,270,0.0,0.0,71,0.00,,,0.00,WUHU216HW,2014-03-03 11:34:00,
2014-03-03 05:40:00,-11.7,-18.5,30.45,West,270,0.0,0.0,71,0.00,,,0.00,WUHU216HW,2014-03-03 11:40:00,
2014-03-03 05:46:00,-11.2,-18.1,30.45,WSW,248,0.0,0.0,71,0.00,,,0.00,WUHU216HW,2014-03-03 11:46:00,
2014-03-03 05:52:00,-10.8,-17.7,30.44,WSW,248,0.0,0.0,71,0.00,,,0.00,WUHU216HW,2014-03-03 11:52:00,
2014-03-03 05:58:00,-10.8,-17.7,30.45,WSW,248,0.0,0.0,71,0.00,,,0.00,WUHU216HW,2014-03-03 11:58:00,
2014-03-03 06:04:00,-10.4,-17.4,30.45,WSW,248,0.0,0.0,71,0.00,,,0.00,WUHU216HW,2014-03-03 12:04:00,
2014-03-03 06:10:00,-11.0,-17.4,30.45,NW,315,0.0,0.0,73,0.00,,,0.00,WUHU216HW,2014-03-03 12:10:00,
2014-03-03 06:16:00,-11.5,-17.9,30.45,NW,315,0.0,0.0,73,0.00,,,0.00,WUHU216HW,2014-03-03 12:16:00,
2014-03-03 06:22:00,-11.7,-18.1,30.45,NW,315,0.0,0.0,73,0.00,,,0.00,WUHU216HW,2014-03-03 12:22:00,
2014-03-03 06:28:00,-11.9,-18.2,30.45,NW,315,0.0,0.0,73,0.00,,,0.00,WUHU216HW,2014-03-03 12:28:00,
2014-03-03 06:34:00,-11.7,-18.1,30.44,NW,315,0.0,0.0,73,0.00,,,0.00,WUHU216HW,2014-03-03 12:34:00,
2014-03-03 06:40:00,-11.2,-17.5,30.44,NW,315,0.0,0.0,73,0.00,,,0.00,WUHU216HW,2014-03-03 12:40:00,
2014-03-03 06:46:00,-10.8,-17.2,30.44,NW,315,0.0,0.0,73,0.00,,,0.00,WUHU216HW,2014-03-03 12:46:00,
2014-03-03 06:52:00,-11.0,-17.4,30.43,NW,315,0.0,0.0,73,0.00,,,0.00,WUHU216HW,2014-03-03 12:52:00,
2014-03-03 06:58:00,-10.6,-17.0,30.43,WSW,248,0.0,0.0,73,0.00,,,0.00,WUHU216HW,2014-03-03 12:58:00,
2014-03-03 07:04:00,-9.9,-16.3,30.43,WSW,248,0.0,0.0,73,0.00,,,0.00,WUHU216HW,2014-03-03 13:04:00,
2014-03-03 07:10:00,-9.4,-15.7,30.43,NNW,338,0.0,0.0,73,0.00,,,0.00,WUHU216HW,2014-03-03 13:10:00,
2014-03-03 07:16:00,-9.7,-16.1,30.43,NNW,338,0.0,0.0,73,0.00,,,0.00,WUHU216HW,2014-03-03 13:16:00,
2014-03-03 07:22:00,-9.7,-16.1,30.43,NW,315,0.0,0.0,73,0.00,,,0.00,WUHU216HW,2014-03-03 13:22:00,
2014-03-03 07:28:00,-9.7,-15.8,30.43,WNW,293,0.0,0.0,74,0.00,,,0.00,WUHU216HW,2014-03-03 13:28:00,
2014-03-03 07:34:00,-9.4,-15.7,30.43,NW,315,0.0,0.0,73,0.00,,,0.00,WUHU216HW,2014-03-03 13:34:00,
2014-03-03 07:40:00,-9.2,-15.6,30.43,NW,315,0.0,0.0,73,0.00,,,0.00,WUHU216HW,2014-03-03 13:40:00,
2014-03-03 07:46:00,-9.0,-14.8,30.43,NNW,338,0.0,0.0,75,0.00,,,0.00,WUHU216HW,2014-03-03 13:46:00,
2014-03-03 07:52:00,-8.6,-14.5,30.42,ENE,68,0.0,0.0,75,0.00,,,0.00,WUHU216HW,2014-03-03 13:52:00,
2014-03-03 07:58:00,-7.9,-13.9,30.42,SSE,158,0.0,0.0,75,0.00,,,0.00,WUHU216HW,2014-03-03 13:58:00,
2014-03-03 08:04:00,-7.4,-13.3,30.42,NNW,338,0.0,0.0,75,0.00,,,0.00,WUHU216HW,2014-03-03 14:04:00,
2014-03-03 08:10:00,-7.0,-12.9,30.43,NNW,338,0.0,0.0,75,0.00,,,0.00,WUHU216HW,2014-03-03 14:10:00,
2014-03-03 08:16:00,-6.3,-12.6,30.43,NNW,338,0.0,0.0,74,0.00,,,0.00,WUHU216HW,2014-03-03 14:16:00,
2014-03-03 08:23:00,-5.2,-11.5,30.43,WNW,293,0.0,0.0,74,0.00,,,0.00,WUHU216HW,2014-03-03 14:23:00,
2014-03-03 08:29:00,-5.0,-11.6,30.43,NW,315,0.0,0.0,73,0.00,,,0.00,WUHU216HW,2014-03-03 14:29:00,
2014-03-03 08:35:00,-4.9,-11.7,30.42,North,0,0.0,0.0,72,0.00,,,0.00,WUHU216HW,2014-03-03 14:35:00,
2014-03-03 08:41:00,-4.0,-10.3,30.42,SE,135,0.0,0.0,74,0.00,,,0.00,WUHU216HW,2014-03-03 14:41:00,
2014-03-03 08:47:00,-2.9,-9.2,30.41,SSE,158,0.0,0.0,74,0.00,,,0.00,WUHU216HW,2014-03-03 14:47:00,
2014-03-03 08:53:00,-2.3,-8.9,30.41,SSE,158,1.0,1.0,73,0.00,,,0.00,WUHU216HW,2014-03-03 14:53:00,
2014-03-03 08:59:00,-0.9,-7.6,30.41,SSE,158,1.0,1.0,73,0.00,,,0.00,WUHU216HW,2014-03-03 14:59:00,
2014-03-03 09:05:00,0.0,-6.7,30.40,SSE,158,1.0,1.0,73,0.00,,,0.00,WUHU216HW,2014-03-03 15:05:00,
2014-03-03 09:11:00,0.5,-6.5,30.40,SE,135,0.0,1.0,72,0.00,,,0.00,WUHU216HW,2014-03-03 15:11:00,
2014-03-03 09:17:00,0.4,-6.7,30.41,SSE,158,0.0,1.0,72,0.00,,,0.00,WUHU216HW,2014-03-03 15:17:00,
2014-03-03 09:23:00,1.1,-5.9,30.41,SSE,158,0.0,1.0,72,0.00,,,0.00,WUHU216HW,2014-03-03 15:23:00,
2014-03-03 09:29:00,2.0,-5.0,30.42,SE,135,0.0,0.0,72,0.00,,,0.00,WUHU216HW,2014-03-03 15:29:00,
2014-03-03 09:35:00,3.6,-3.4,30.41,SSE,158,0.0,0.0,72,0.00,,,0.00,WUHU216HW,2014-03-03 15:35:00,
2014-03-03 09:41:00,4.7,-2.7,30.40,SSE,158,0.0,0.0,71,0.00,,,0.00,WUHU216HW,2014-03-03 15:41:00,
2014-03-03 09:47:00,4.9,-3.1,30.40,SE,135,0.0,0.0,69,0.00,,,0.00,WUHU216HW,2014-03-03 15:47:00,
2014-03-03 09:53:00,5.0,-3.7,30.41,SE,135,0.0,1.0,67,0.00,,,0.00,WUHU216HW,2014-03-03 15:53:00,
2014-03-03 09:59:00,5.8,-3.0,30.41,ENE,68,0.0,1.0,67,0.00,,,0.00,WUHU216HW,2014-03-03 15:59:00,
2014-03-03 10:05:00,6.1,-2.9,30.41,East,90,0.0,1.0,66,0.00,,,0.00,WUHU216HW,2014-03-03 16:05:00,
2014-03-03 10:11:00,5.9,-3.8,30.41,SE,135,0.0,1.0,64,0.00,,,0.00,WUHU216HW,2014-03-03 16:11:00,
2014-03-03 10:17:00,6.1,-3.6,30.41,SSE,158,0.0,1.0,64,0.00,,,0.00,WUHU216HW,2014-03-03 16:17:00,
2014-03-03 10:23:00,6.1,-3.6,30.41,ENE,68,0.0,1.0,64,0.00,,,0.00,WUHU216HW,2014-03-03 16:23:00,
2014-03-03 10:29:00,6.1,-3.9,30.40,ESE,113,0.0,1.0,63,0.00,,,0.00,WUHU216HW,2014-03-03 16:29:00,
2014-03-03 10:35:00,6.8,-3.1,30.41,SE,135,1.0,1.0,63,0.00,,,0.00,WUHU216HW,2014-03-03 16:35:00,
2014-03-03 10:41:00,7.2,-2.8,30.41,SE,135,1.0,1.0,63,0.00,,,0.00,WUHU216HW,2014-03-03 16:41:00,
2014-03-03 10:47:00,8.5,-1.3,30.41,NNW,338,1.0,1.0,64,0.00,,,0.00,WUHU216HW,2014-03-03 16:47:00,
2014-03-03 10:53:00,9.0,-1.2,30.41,ESE,113,1.0,1.0,63,0.00,,,0.00,WUHU216HW,2014-03-03 16:53:00,
2014-03-03 10:59:00,9.4,-1.8,30.41,East,90,0.0,2.0,60,0.00,,,0.00,WUHU216HW,2014-03-03 16:59:00,
2014-03-03 11:05:00,9.4,-1.8,30.41,SE,135,2.0,2.0,60,0.00,,,0.00,WUHU216HW,2014-03-03 17:05:00,
2014-03-03 11:11:00,10.1,-1.4,30.40,ESE,113,2.0,3.0,59,0.00,,,0.00,WUHU216HW,2014-03-03 17:11:00,
2014-03-03 11:17:00,10.1,-2.2,30.40,SSE,158,1.0,3.0,57,0.00,,,0.00,WUHU216HW,2014-03-03 17:17:00,
2014-03-03 11:23:00,10.4,-1.4,30.39,SW,225,0.0,2.0,58,0.00,,,0.00,WUHU216HW,2014-03-03 17:23:00,
2014-03-03 11:29:00,10.4,-1.1,30.40,ENE,68,0.0,3.0,59,0.00,,,0.00,WUHU216HW,2014-03-03 17:29:00,
2014-03-03 11:35:00,10.3,-2.4,30.39,SE,135,2.0,5.0,56,0.00,,,0.00,WUHU216HW,2014-03-03 17:35:00,
2014-03-03 11:41:00,10.4,-1.4,30.39,SE,135,2.0,5.0,58,0.00,,,0.00,WUHU216HW,2014-03-03 17:41:00,
2014-03-03 11:47:00,10.8,-1.5,30.38,SE,135,1.0,3.0,57,0.00,,,0.00,WUHU216HW,2014-03-03 17:47:00,
2014-03-03 11:53:00,11.7,0.0,30.38,SSE,158,1.0,3.0,59,0.00,,,0.00,WUHU216HW,2014-03-03 17:53:00,
2014-03-03 11:59:00,12.4,0.7,30.38,SE,135,1.0,2.0,59,0.00,,,0.00,WUHU216HW,2014-03-03 17:59:00,
2014-03-03 12:05:00,13.3,1.2,30.38,SE,135,1.0,3.0,58,0.00,,,0.00,WUHU216HW,2014-03-03 18:05:00,
2014-03-03 12:11:00,14.0,1.5,30.38,SE,135,2.0,3.0,57,0.00,,,0.00,WUHU216HW,2014-03-03 18:11:00,
2014-03-03 12:17:00,14.6,1.6,30.37,SSE,158,1.0,3.0,56,0.00,,,0.00,WUHU216HW,2014-03-03 18:17:00,
2014-03-03 12:23:00,14.2,0.9,30.37,SE,135,1.0,3.0,55,0.00,,,0.00,WUHU216HW,2014-03-03 18:23:00,
2014-03-03 12:29:00,14.0,0.7,30.37,South,180,2.0,3.0,55,0.00,,,0.00,WUHU216HW,2014-03-03 18:29:00,
2014-03-03 12:35:00,13.9,0.5,30.37,SE,135,1.0,3.0,55,0.00,,,0.00,WUHU216HW,2014-03-03 18:35:00,
2014-03-03 12:41:00,13.7,0.8,30.37,SE,135,1.0,3.0,56,0.00,,,0.00,WUHU216HW,2014-03-03 18:41:00,
2014-03-03 12:47:00,14.6,1.6,30.37,SE,135,1.0,2.0,56,0.00,,,0.00,WUHU216HW,2014-03-03 18:47:00,
2014-03-03 12:53:00,14.6,1.3,30.36,SE,135,0.0,3.0,55,0.00,,,0.00,WUHU216HW,2014-03-03 18:53:00,
2014-03-03 12:59:00,13.7,0.4,30.36,SSE,158,1.0,3.0,55,0.00,,,0.00,WUHU216HW,2014-03-03 18:59:00,
2014-03-03 13:05:00,13.5,0.2,30.36,SSE,158,1.0,3.0,55,0.00,,,0.00,WUHU216HW,2014-03-03 19:05:00,
2014-03-03 13:11:00,13.7,0.0,30.36,SE,135,1.0,2.0,54,0.00,,,0.00,WUHU216HW,2014-03-03 19:11:00,
2014-03-03 13:17:00,14.2,0.9,30.36,SSE,158,1.0,4.0,55,0.00,,,0.00,WUHU216HW,2014-03-03 19:17:00,
2014-03-03 13:23:00,15.1,1.7,30.35,SSE,158,1.0,4.0,55,0.00,,,0.00,WUHU216HW,2014-03-03 19:23:00,
2014-03-03 13:29:00,15.8,2.4,30.35,ESE,113,1.0,3.0,55,0.00,,,0.00,WUHU216HW,2014-03-03 19:29:00,
2014-03-03 13:35:00,16.9,3.9,30.34,SSE,158,1.0,2.0,56,0.00,,,0.00,WUHU216HW,2014-03-03 19:35:00,
2014-03-03 13:41:00,17.6,4.1,30.34,SSE,158,3.0,3.0,55,0.00,,,0.00,WUHU216HW,2014-03-03 19:41:00,
2014-03-03 13:47:00,17.8,3.2,30.34,South,180,2.0,3.0,52,0.00,,,0.00,WUHU216HW,2014-03-03 19:47:00,
2014-03-03 13:53:00,17.6,2.5,30.34,SSE,158,2.0,3.0,51,0.00,,,0.00,WUHU216HW,2014-03-03 19:53:00,
2014-03-03 13:59:00,17.1,2.1,30.34,NNE,23,0.0,3.0,51,0.00,,,0.00,WUHU216HW,2014-03-03 19:59:00,
2014-03-03 14:05:00,16.7,1.7,30.33,SSE,158,0.0,2.0,51,0.00,,,0.00,WUHU216HW,2014-03-03 20:05:00,
2014-03-03 14:11:00,16.9,2.3,30.33,ESE,113,1.0,3.0,52,0.00,,,0.00,WUHU216HW,2014-03-03 20:11:00,
2014-03-03 14:17:00,17.6,2.5,30.32,SE,135,2.0,4.0,51,0.00,,,0.00,WUHU216HW,2014-03-03 20:17:00,
2014-03-03 14:23:00,18.2,2.6,30.32,NNW,338,1.0,4.0,50,0.00,,,0.00,WUHU216HW,2014-03-03 20:23:00,
2014-03-03 14:29:00,18.2,3.1,30.32,ESE,113,1.0,3.0,51,0.00,,,0.00,WUHU216HW,2014-03-03 20:29:00,
2014-03-03 14:35:00,17.6,2.5,30.32,SE,135,1.0,3.0,51,0.00,,,0.00,WUHU216HW,2014-03-03 20:35:00,
2014-03-03 14:41:00,16.9,1.5,30.32,ESE,113,1.0,4.0,50,0.00,,,0.00,WUHU216HW,2014-03-03 20:41:00,
2014-03-03 14:47:00,16.6,1.5,30.31,South,180,2.0,5.0,51,0.00,,,0.00,WUHU216HW,2014-03-03 20:47:00,
2014-03-03 14:53:00,16.2,-0.1,30.32,SSE,158,1.0,5.0,48,0.00,,,0.00,WUHU216HW,2014-03-03 20:53:00,
2014-03-03 15:00:00,15.1,-0.2,30.32,SE,135,2.0,4.0,50,0.00,,,0.00,WUHU216HW,2014-03-03 21:00:00,
2014-03-03 15:06:00,15.1,-0.2,30.31,SE,135,1.0,4.0,50,0.00,,,0.00,WUHU216HW,2014-03-03 21:06:00,
2014-03-03 15:12:00,14.9,-0.4,30.31,SE,135,2.0,4.0,50,0.00,,,0.00,WUHU216HW,2014-03-03 21:12:00,
2014-03-03 15:18:00,14.8,-0.2,30.31,SSE,158,3.0,4.0,51,0.00,,,0.00,WUHU216HW,2014-03-03 21:18:00,
2014-03-03 15:24:00,14.8,0.3,30.31,SSE,158,4.0,4.0,52,0.00,,,0.00,WUHU216HW,2014-03-03 21:24:00,
2014-03-03 15:30:00,14.2,-0.7,30.31,SSE,158,3.0,4.0,51,0.00,,,0.00,WUHU216HW,2014-03-03 21:30:00,
2014-03-03 15:36:00,14.0,-0.9,30.30,SSE,158,2.0,4.0,51,0.00,,,0.00,WUHU216HW,2014-03-03 21:36:00,
2014-03-03 15:42:00,13.7,-0.8,30.30,ESE,113,3.0,4.0,52,0.00,,,0.00,WUHU216HW,2014-03-03 21:42:00,
2014-03-03 15:48:00,13.0,-1.1,30.30,SE,135,3.0,4.0,53,0.00,,,0.00,WUHU216HW,2014-03-03 21:48:00,
2014-03-03 15:54:00,12.8,-1.3,30.29,SSE,158,3.0,4.0,53,0.00,,,0.00,WUHU216HW,2014-03-03 21:54:00,
2014-03-03 16:00:00,12.2,-1.3,30.29,SE,135,2.0,4.0,54,0.00,,,0.00,WUHU216HW,2014-03-03 22:00:00,
2014-03-03 16:06:00,11.5,-1.6,30.29,SSE,158,2.0,4.0,55,0.00,,,0.00,WUHU216HW,2014-03-03 22:06:00,
2014-03-03 16:12:00,11.3,-1.4,30.28,SSE,158,2.0,4.0,56,0.00,,,0.00,WUHU216HW,2014-03-03 22:12:00,
2014-03-03 16:18:00,10.8,-2.2,30.28,SE,135,1.0,3.0,55,0.00,,,0.00,WUHU216HW,2014-03-03 22:18:00,
2014-03-03 16:24:00,10.8,-1.5,30.29,South,180,1.0,3.0,57,0.00,,,0.00,WUHU216HW,2014-03-03 22:24:00,
2014-03-03 16:30:00,11.2,-0.8,30.28,SSE,158,2.0,5.0,58,0.00,,,0.00,WUHU216HW,2014-03-03 22:30:00,
2014-03-03 16:36:00,10.8,-1.5,30.27,SE,135,1.0,5.0,57,0.00,,,0.00,WUHU216HW,2014-03-03 22:36:00,
2014-03-03 16:42:00,11.2,-0.8,30.27,SE,135,2.0,3.0,58,0.00,,,0.00,WUHU216HW,2014-03-03 22:42:00,
2014-03-03 16:48:00,11.0,-1.0,30.27,SE,135,3.0,4.0,58,0.00,,,0.00,WUHU216HW,2014-03-03 22:48:00,
2014-03-03 16:54:00,10.4,-1.1,30.27,SE,135,1.0,4.0,59,0.00,,,0.00,WUHU216HW,2014-03-03 22:54:00,
2014-03-03 17:00:00,10.3,-0.9,30.26,SE,135,3.0,3.0,60,0.00,,,0.00,WUHU216HW,2014-03-03 23:00:00,
2014-03-03 17:06:00,10.3,-0.9,30.26,SSE,158,2.0,3.0,60,0.00,,,0.00,WUHU216HW,2014-03-03 23:06:00,
2014-03-03 17:12:00,9.9,-1.3,30.25,SSE,158,0.0,3.0,60,0.00,,,0.00,WUHU216HW,2014-03-03 23:12:00,
2014-03-03 17:18:00,9.9,-1.3,30.25,SE,135,1.0,2.0,60,0.00,,,0.00,WUHU216HW,2014-03-03 23:18:00,
2014-03-03 17:24:00,9.7,-1.1,30.25,SSW,203,1.0,5.0,61,0.00,,,0.00,WUHU216HW,2014-03-03 23:24:00,
2014-03-03 17:30:00,9.4,-1.4,30.25,SSE,158,1.0,3.0,61,0.00,,,0.00,WUHU216HW,2014-03-03 23:30:00,
2014-03-03 17:36:00,9.2,-1.0,30.24,SSE,158,2.0,4.0,63,0.00,,,0.00,WUHU216HW,2014-03-03 23:36:00,
2014-03-03 17:42:00,9.2,-0.6,30.24,South,180,3.0,4.0,64,0.00,,,0.00,WUHU216HW,2014-03-03 23:42:00,
2014-03-03 17:48:00,9.2,-0.6,30.24,SSW,203,0.0,3.0,64,0.00,,,0.00,WUHU216HW,2014-03-03 23:48:00,
2014-03-03 17:54:00,9.2,-0.6,30.24,South,180,1.0,3.0,64,0.00,,,0.00,WUHU216HW,2014-03-03 23:54:00,
2014-03-03 18:00:00,9.0,-0.8,30.24,South,180,1.0,2.0,64,0.00,,,0.00,WUHU216HW,2014-03-04 00:00:00,
2014-03-03 18:06:00,9.0,-0.8,30.24,South,180,2.0,2.0,64,0.00,,,0.00,WUHU216HW,2014-03-04 00:06:00,
2014-03-03 18:12:00,8.8,-1.0,30.24,SE,135,1.0,2.0,64,0.00,,,0.00,WUHU216HW,2014-03-04 00:12:00,
2014-03-03 18:18:00,8.6,-1.2,30.24,SE,135,1.0,2.0,64,0.00,,,0.00,WUHU216HW,2014-03-04 00:18:00,
2014-03-03 18:24:00,8.6,-1.2,30.24,SSE,158,3.0,3.0,64,0.00,,,0.00,WUHU216HW,2014-03-04 00:24:00,
2014-03-03 18:30:00,8.6,-1.2,30.24,SSE,158,2.0,3.0,64,0.00,,,0.00,WUHU216HW,2014-03-04 00:30:00,
2014-03-03 18:36:00,8.6,-0.8,30.24,SE,135,1.0,3.0,65,0.00,,,0.00,WUHU216HW,2014-03-04 00:36:00,
2014-03-03 18:42:00,8.6,-0.4,30.24,SSE,158,2.0,3.0,66,0.00,,,0.00,WUHU216HW,2014-03-04 00:42:00,
2014-03-03 18:48:00,8.6,-0.4,30.24,SSE,158,1.0,3.0,66,0.00,,,0.00,WUHU216HW,2014-03-04 00:48:00,
2014-03-03 18:54:00,8.5,-0.6,30.24,SE,135,2.0,3.0,66,0.00,,,0.00,WUHU216HW,2014-03-04 00:54:00,
2014-03-03 19:00:00,8.5,-0.6,30.23,SE,135,1.0,2.0,66,0.00,,,0.00,WUHU216HW,2014-03-04 01:00:00,
2014-03-03 19:06:00,8.3,-0.8,30.23,South,180,1.0,2.0,66,0.00,,,0.00,WUHU216HW,2014-03-04 01:06:00,
2014-03-03 19:12:00,8.3,-0.8,30.23,SE,135,1.0,3.0,66,0.00,,,0.00,WUHU216HW,2014-03-04 01:12:00,
2014-03-03 19:18:00,8.3,-0.8,30.22,SSW,203,2.0,4.0,66,0.00,,,0.00,WUHU216HW,2014-03-04 01:18:00,
2014-03-03 19:24:00,8.3,-0.8,30.22,SW,225,2.0,4.0,66,0.00,,,0.00,WUHU216HW,2014-03-04 01:24:00,
2014-03-03 19:30:00,8.3,-0.8,30.22,South,180,1.0,3.0,66,0.00,,,0.00,WUHU216HW,2014-03-04 01:30:00,
2014-03-03 19:36:00,8.5,0.0,30.22,SSE,158,2.0,3.0,68,0.00,,,0.00,WUHU216HW,2014-03-04 01:36:00,
2014-03-03 19:42:00,8.6,0.9,30.22,SE,135,1.0,3.0,70,0.00,,,0.00,WUHU216HW,2014-03-04 01:42:00,
2014-03-03 19:48:00,8.6,0.9,30.22,SE,135,1.0,3.0,70,0.00,,,0.00,WUHU216HW,2014-03-04 01:48:00,
2014-03-03 19:54:00,8.6,0.5,30.22,SSE,158,2.0,3.0,69,0.00,,,0.00,WUHU216HW,2014-03-04 01:54:00,
2014-03-03 20:00:00,8.5,0.4,30.21,SSE,158,1.0,3.0,69,0.00,,,0.00,WUHU216HW,2014-03-04 02:00:00,
2014-03-03 20:06:00,8.5,0.4,30.22,South,180,3.0,3.0,69,0.00,,,0.00,WUHU216HW,2014-03-04 02:06:00,
2014-03-03 20:12:00,8.5,0.4,30.22,SSE,158,1.0,3.0,69,0.00,,,0.00,WUHU216HW,2014-03-04 02:12:00,
2014-03-03 20:18:00,8.3,0.2,30.21,ESE,113,1.0,3.0,69,0.00,,,0.00,WUHU216HW,2014-03-04 02:18:00,
2014-03-03 20:24:00,8.3,0.2,30.21,SE,135,2.0,4.0,69,0.00,,,0.00,WUHU216HW,2014-03-04 02:24:00,
2014-03-03 20:30:00,8.3,0.2,30.21,SE,135,1.0,4.0,69,0.00,,,0.00,WUHU216HW,2014-03-04 02:30:00,
2014-03-03 20:36:00,8.3,0.2,30.20,SE,135,1.0,3.0,69,0.00,,,0.00,WUHU216HW,2014-03-04 02:36:00,
2014-03-03 20:42:00,8.3,0.2,30.20,SE,135,2.0,3.0,69,0.00,,,0.00,WUHU216HW,2014-03-04 02:42:00,
2014-03-03 20:48:00,8.3,0.5,30.20,South,180,2.0,3.0,70,0.00,,,0.00,WUHU216HW,2014-03-04 02:48:00,
2014-03-03 20:54:00,8.3,0.5,30.20,SSE,158,2.0,3.0,70,0.00,,,0.00,WUHU216HW,2014-03-04 02:54:00,
2014-03-03 21:00:00,8.3,0.5,30.20,SE,135,2.0,3.0,70,0.00,,,0.00,WUHU216HW,2014-03-04 03:00:00,
2014-03-03 21:06:00,8.1,0.4,30.20,South,180,1.0,3.0,70,0.00,,,0.00,WUHU216HW,2014-03-04 03:06:00,
2014-03-03 21:12:00,7.9,0.2,30.20,SSW,203,2.0,4.0,70,0.00,,,0.00,WUHU216HW,2014-03-04 03:12:00,
2014-03-03 21:18:00,7.9,0.2,30.20,SSE,158,2.0,4.0,70,0.00,,,0.00,WUHU216HW,2014-03-04 03:18:00,
2014-03-03 21:24:00,7.9,0.2,30.20,SE,135,1.0,3.0,70,0.00,,,0.00,WUHU216HW,2014-03-04 03:24:00,
2014-03-03 21:30:00,7.9,0.2,30.19,South,180,2.0,2.0,70,0.00,,,0.00,WUHU216HW,2014-03-04 03:30:00,
2014-03-03 21:36:00,7.7,0.3,30.19,SSE,158,1.0,3.0,71,0.00,,,0.00,WUHU216HW,2014-03-04 03:36:00,
2014-03-03 21:42:00,7.7,0.5,30.19,SSE,158,1.0,3.0,72,0.00,,,0.00,WUHU216HW,2014-03-04 03:42:00,
2014-03-03 21:49:00,7.9,1.1,30.18,SSE,158,3.0,3.0,73,0.00,,,0.00,WUHU216HW,2014-03-04 03:49:00,
2014-03-03 21:55:00,7.7,0.9,30.18,SSE,158,2.0,3.0,73,0.00,,,0.00,WUHU216HW,2014-03-04 03:55:00,
2014-03-03 22:01:00,7.7,0.9,30.18,SSW,203,1.0,3.0,73,0.00,,,0.00,WUHU216HW,2014-03-04 04:01:00,
2014-03-03 22:07:00,7.9,1.1,30.18,SE,135,3.0,3.0,73,0.00,,,0.00,WUHU216HW,2014-03-04 04:07:00,
2014-03-03 22:13:00,7.9,1.1,30.17,SSE,158,2.0,4.0,73,0.00,,,0.00,WUHU216HW,2014-03-04 04:13:00,
2014-03-03 22:19:00,7.7,0.9,30.17,SSE,158,1.0,5.0,73,0.00,,,0.00,WUHU216HW,2014-03-04 04:19:00,
2014-03-03 22:25:00,7.7,0.9,30.17,SSE,158,0.0,5.0,73,0.00,,,0.00,WUHU216HW,2014-03-04 04:25:00,
2014-03-03 22:31:00,7.7,0.9,30.17,SE,135,1.0,5.0,73,0.00,,,0.00,WUHU216HW,2014-03-04 04:31:00,
2014-03-03 22:37:00,7.7,0.9,30.17,SE,135,1.0,4.0,73,0.00,,,0.00,WUHU216HW,2014-03-04 04:37:00,
2014-03-03 22:43:00,7.7,0.9,30.17,SSE,158,2.0,3.0,73,0.00,,,0.00,WUHU216HW,2014-03-04 04:43:00,
2014-03-03 22:49:00,7.7,1.2,30.18,SSE,158,1.0,3.0,74,0.00,,,0.00,WUHU216HW,2014-03-04 04:49:00,
2014-03-03 22:55:00,7.7,1.2,30.18,SSE,158,3.0,3.0,74,0.00,,,0.00,WUHU216HW,2014-03-04 04:55:00,
2014-03-03 23:01:00,7.7,1.2,30.18,South,180,3.0,3.0,74,0.00,,,0.00,WUHU216HW,2014-03-04 05:01:00,
2014-03-03 23:07:00,7.7,1.4,30.17,SE,135,1.0,3.0,75,0.00,,,0.00,WUHU216HW,2014-03-04 05:07:00,
2014-03-03 23:10:00,7.7,1.4,30.17,East,90,2.0,3.0,75,0.00,,,0.00,WUHU216HW,2014-03-04 05:10:00,
2014-03-03 23:16:00,7.7,1.4,30.17,SSE,158,3.0,4.0,75,0.00,,,0.00,WUHU216HW,2014-03-04 05:16:00,
2014-03-03 23:22:00,7.6,1.3,30.17,SSE,158,3.0,4.0,75,0.00,,,0.00,WUHU216HW,2014-03-04 05:22:00,
2014-03-03 23:25:00,7.6,1.3,30.18,SE,135,2.0,4.0,75,0.00,,,0.00,WUHU216HW,2014-03-04 05:25:00,
2014-03-03 23:31:00,7.6,1.3,30.18,SE,135,1.0,4.0,75,0.00,,,0.00,WUHU216HW,2014-03-04 05:31:00,
2014-03-03 23:37:00,7.7,1.4,30.17,SSE,158,1.0,3.0,75,0.00,,,0.00,WUHU216HW,2014-03-04 05:37:00,
2014-03-03 23:43:00,7.7,1.4,30.17,SSE,158,1.0,3.0,75,0.00,,,0.00,WUHU216HW,2014-03-04 05:43:00,
2014-03-03 23:49:00,7.7,1.4,30.17,SSE,158,1.0,3.0,75,0.00,,,0.00,WUHU216HW,2014-03-04 05:49:00,
2014-03-03 23:55:00,7.7,1.4,30.17,SSE,158,1.0,3.0,75,0.00,,,0.00,WUHU216HW,2014-03-04 05:55:00,